createdAt,value
2022-11-15T00:01:39.582Z,0.93
2022-11-15T00:04:27.743Z,0.80
2022-11-15T00:07:40.478Z,0.45
2022-11-15T00:10:24.527Z,0.60
2022-11-15T00:13:15.823Z,0.40
2022-11-15T00:16:04.540Z,0.20
2022-11-15T00:18:53.622Z,0.10
2022-11-15T00:21:41.912Z,0.00
2022-11-15T00:24:30.607Z,0.10
2022-11-15T00:27:19.017Z,0.13
2022-11-15T00:30:07.900Z,0.20
2022-11-15T00:32:56.080Z,0.10
2022-11-15T00:35:44.486Z,0.10
2022-11-15T00:38:40.967Z,0.10
2022-11-15T00:41:29.285Z,0.20
2022-11-15T00:44:17.408Z,0.00
2022-11-15T00:47:06.122Z,0.10
2022-11-15T00:49:54.457Z,0.10
2022-11-15T00:52:42.519Z,0.13
2022-11-15T00:55:30.851Z,0.20
2022-11-15T00:58:19.247Z,0.10
2022-11-15T01:01:16.421Z,0.17
2022-11-15T01:04:04.604Z,0.20
2022-11-15T01:06:53.162Z,0.30
2022-11-15T01:09:41.466Z,0.20
2022-11-15T01:12:29.907Z,0.20
2022-11-15T01:15:18.126Z,0.20
2022-11-15T01:18:06.624Z,0.10
2022-11-15T01:20:55.005Z,0.10
2022-11-15T01:23:43.647Z,0.10
2022-11-15T01:29:20.198Z,0.15
2022-11-15T01:32:08.380Z,0.10
2022-11-15T01:34:56.734Z,0.20
2022-11-15T01:37:45.153Z,0.30
2022-11-15T01:40:33.245Z,0.28
2022-11-15T01:43:33.423Z,0.20
2022-11-15T01:46:35.920Z,0.10
2022-11-15T01:49:25.610Z,0.60
2022-11-15T01:52:17.685Z,0.52
2022-11-15T01:55:25.498Z,0.35
2022-11-15T02:01:01.634Z,0.20
2022-11-15T02:04:00.092Z,0.30
2022-11-15T02:06:50.918Z,0.10
2022-11-15T02:09:40.970Z,0.17
2022-11-15T02:12:31.225Z,0.20
2022-11-15T02:15:21.436Z,0.10
2022-11-15T02:18:25.603Z,0.20
2022-11-15T02:21:31.408Z,0.15
2022-11-15T02:24:56.166Z,0.05
2022-11-15T02:28:09.010Z,0.10
2022-11-15T02:31:08.026Z,0.10
2022-11-15T02:34:04.921Z,0.30
2022-11-15T02:37:00.576Z,0.30
2022-11-15T02:40:03.479Z,0.20
2022-11-15T02:43:33.175Z,0.10
2022-11-15T02:46:54.522Z,0.22
2022-11-15T02:49:54.783Z,0.00
2022-11-15T02:52:43.116Z,0.10
2022-11-15T02:55:46.095Z,0.20
2022-11-15T02:58:51.007Z,0.13
2022-11-15T03:02:05.771Z,0.08
2022-11-15T03:05:02.185Z,0.10
2022-11-15T03:08:15.927Z,0.32
2022-11-15T03:11:11.543Z,0.20
2022-11-15T03:14:06.244Z,0.20
2022-11-15T03:17:16.998Z,0.17
2022-11-15T03:20:09.320Z,0.10
2022-11-15T03:23:10.585Z,0.10
2022-11-15T03:26:00.731Z,0.10
2022-11-15T03:28:55.837Z,0.10
2022-11-15T03:31:52.022Z,0.10
2022-11-15T03:34:54.777Z,0.20
2022-11-15T03:37:52.281Z,0.30
2022-11-15T03:40:57.586Z,0.10
2022-11-15T03:44:24.584Z,0.68
2022-11-15T03:47:39.708Z,0.05
2022-11-15T03:50:28.724Z,0.10
2022-11-15T03:53:17.003Z,0.43
2022-11-15T03:56:05.293Z,0.20
2022-11-15T03:58:53.419Z,0.20
2022-11-15T04:01:41.938Z,0.15
2022-11-15T04:04:30.114Z,0.60
2022-11-15T04:07:18.966Z,0.10
2022-11-15T04:10:08.088Z,0.30
2022-11-15T04:12:56.173Z,0.32
2022-11-15T04:15:44.265Z,0.20
2022-11-15T04:18:32.813Z,0.20
2022-11-15T04:21:39.434Z,0.40
2022-11-15T04:24:27.992Z,0.20
2022-11-15T04:27:16.346Z,0.20
2022-11-15T04:30:04.808Z,0.20
2022-11-15T04:32:53.159Z,0.30
2022-11-15T04:35:41.888Z,0.10
2022-11-15T04:38:29.971Z,0.20
2022-11-15T04:41:18.208Z,0.10
2022-11-15T04:44:06.833Z,0.25
2022-11-15T04:46:55.283Z,0.10
2022-11-15T04:49:43.799Z,0.10
2022-11-15T04:52:32.090Z,0.10
2022-11-15T04:55:20.345Z,0.20
2022-11-15T04:58:08.800Z,0.17
2022-11-15T05:00:57.385Z,0.13
2022-11-15T05:04:04.454Z,0.28
2022-11-15T05:06:54.073Z,0.10
2022-11-15T05:09:42.587Z,0.20
2022-11-15T05:12:30.894Z,0.10
2022-11-15T05:15:19.509Z,0.20
2022-11-15T05:18:07.556Z,0.40
2022-11-15T05:20:55.876Z,0.10
2022-11-15T05:23:44.399Z,0.30
2022-11-15T05:26:32.766Z,0.00
2022-11-15T05:29:21.064Z,0.20
2022-11-15T05:32:12.214Z,0.20
2022-11-15T05:35:01.018Z,0.40
2022-11-15T05:40:38.028Z,0.20
2022-11-15T05:43:27.135Z,0.38
2022-11-15T05:49:04.982Z,0.20
2022-11-15T05:51:55.737Z,0.00
2022-11-15T05:54:44.265Z,0.20
2022-11-15T05:57:32.416Z,0.20
2022-11-15T06:00:21.012Z,0.52
2022-11-15T06:03:09.315Z,0.10
2022-11-15T06:05:58.755Z,0.20
2022-11-15T06:08:46.951Z,0.15
2022-11-15T06:11:35.406Z,0.30
2022-11-15T06:14:23.845Z,0.20
2022-11-15T06:17:12.232Z,0.15
2022-11-15T06:20:00.579Z,0.17
2022-11-15T06:22:48.931Z,0.30
2022-11-15T06:25:37.230Z,0.17
2022-11-15T06:28:25.615Z,0.10
2022-11-15T06:31:14.573Z,0.20
2022-11-15T06:34:02.868Z,0.10
2022-11-15T06:36:51.096Z,0.52
2022-11-15T06:39:39.894Z,0.45
2022-11-15T06:42:28.258Z,0.20
2022-11-15T06:45:16.709Z,0.75
2022-11-15T06:48:04.875Z,0.10
2022-11-15T06:50:57.634Z,0.30
2022-11-15T06:53:46.037Z,0.65
2022-11-15T06:56:34.194Z,0.20
2022-11-15T06:59:22.768Z,0.10
2022-11-15T07:02:16.200Z,0.32
2022-11-15T07:05:04.381Z,0.08
2022-11-15T07:07:56.841Z,0.30
2022-11-15T07:10:44.850Z,0.20
2022-11-15T07:13:38.414Z,0.75
2022-11-15T07:16:26.940Z,0.30
2022-11-15T07:19:15.618Z,0.32
2022-11-15T07:24:51.901Z,0.40
2022-11-15T07:27:40.672Z,0.30
2022-11-15T07:30:30.189Z,0.30
2022-11-15T07:33:18.443Z,0.20
2022-11-15T07:36:08.839Z,0.50
2022-11-15T07:38:57.004Z,0.70
2022-11-15T07:41:46.160Z,0.57
2022-11-15T07:44:34.186Z,0.60
2022-11-15T07:47:22.898Z,0.73
2022-11-15T07:50:11.619Z,0.43
2022-11-15T07:53:01.353Z,0.28
2022-11-15T07:55:49.316Z,0.45
2022-11-15T07:58:38.219Z,0.52
2022-11-15T08:01:26.803Z,0.30
2022-11-15T08:04:15.559Z,0.10
2022-11-15T08:07:03.905Z,0.30
2022-11-15T08:09:52.520Z,0.10
2022-11-15T08:12:40.842Z,0.10
2022-11-15T08:15:29.894Z,0.20
2022-11-15T08:21:07.586Z,0.15
2022-11-15T08:23:58.551Z,0.30
2022-11-15T08:26:47.515Z,0.15
2022-11-15T08:29:35.842Z,0.30
2022-11-15T08:32:24.196Z,0.10
2022-11-15T08:35:12.802Z,0.30
2022-11-15T08:38:01.383Z,0.20
2022-11-15T08:40:49.719Z,0.38
2022-11-15T08:43:38.486Z,0.28
2022-11-15T08:46:26.834Z,0.28
2022-11-15T08:49:15.780Z,0.30
2022-11-15T08:52:04.104Z,0.30
2022-11-15T08:54:52.395Z,0.40
2022-11-15T08:57:40.873Z,0.17
2022-11-15T09:00:29.240Z,0.35
2022-11-15T09:03:17.695Z,0.30
2022-11-15T09:06:06.518Z,0.40
2022-11-15T09:08:54.829Z,0.22
2022-11-15T09:11:43.812Z,0.15
2022-11-15T09:14:32.328Z,0.35
2022-11-15T09:17:24.711Z,0.13
2022-11-15T09:20:13.740Z,0.30
2022-11-15T09:23:03.677Z,0.28
2022-11-15T09:25:52.209Z,0.52
2022-11-15T09:28:43.934Z,0.30
2022-11-15T09:31:32.314Z,0.60
2022-11-15T09:34:20.788Z,0.73
2022-11-15T09:37:08.872Z,0.43
2022-11-15T09:39:57.277Z,0.90
2022-11-15T09:43:06.105Z,0.65
2022-11-15T09:46:03.530Z,0.98
2022-11-15T09:49:04.374Z,0.75
2022-11-15T09:51:57.406Z,0.60
2022-11-15T09:54:55.871Z,0.43
2022-11-15T09:57:51.477Z,0.43
2022-11-15T10:00:45.232Z,0.20
2022-11-15T10:03:23.512Z,0.32
2022-11-15T10:05:58.206Z,0.30
2022-11-15T10:08:55.183Z,0.70
2022-11-15T10:11:38.958Z,0.85
2022-11-15T10:14:23.572Z,1.00
2022-11-15T10:17:31.950Z,1.00
2022-11-15T10:20:28.895Z,0.77
2022-11-15T10:23:01.798Z,0.77
2022-11-15T10:25:41.001Z,0.68
2022-11-15T10:28:28.983Z,0.20
2022-11-15T10:31:01.653Z,0.40
2022-11-15T10:33:43.334Z,0.40
2022-11-15T10:36:18.894Z,0.40
2022-11-15T10:38:52.198Z,1.08
2022-11-15T10:41:29.949Z,0.40
2022-11-15T10:44:27.636Z,0.13
2022-11-15T10:46:58.114Z,0.20
2022-11-15T10:49:33.124Z,0.30
2022-11-15T10:52:16.956Z,0.30
2022-11-15T10:55:15.604Z,0.20
2022-11-15T10:57:54.806Z,0.47
2022-11-15T11:00:43.926Z,0.20
2022-11-15T11:06:12.595Z,0.38
2022-11-15T11:08:50.294Z,0.30
2022-11-15T11:11:20.606Z,0.43
2022-11-15T11:13:51.685Z,0.40
2022-11-15T11:17:09.293Z,0.50
2022-11-15T11:19:46.959Z,0.40
2022-11-15T11:22:35.444Z,0.10
2022-11-15T11:25:11.514Z,0.20
2022-11-15T11:27:53.243Z,0.20
2022-11-15T11:30:31.935Z,0.20
2022-11-15T11:33:13.486Z,0.38
2022-11-15T11:36:07.241Z,0.20
2022-11-15T11:38:43.807Z,0.30
2022-11-15T11:41:35.399Z,0.20
2022-11-15T11:44:23.691Z,0.17
2022-11-15T11:47:06.685Z,0.10
2022-11-15T11:49:53.082Z,0.10
2022-11-15T11:52:33.066Z,0.17
2022-11-15T11:55:27.500Z,0.20
2022-11-15T11:58:31.413Z,0.30
2022-11-15T12:01:13.451Z,0.13
2022-11-15T12:03:52.199Z,0.20
2022-11-15T12:07:00.259Z,0.17
2022-11-15T12:09:37.935Z,0.20
2022-11-15T12:12:12.379Z,0.10
2022-11-15T12:14:47.558Z,0.25
2022-11-15T12:17:20.783Z,0.45
2022-11-15T12:19:51.560Z,0.25
2022-11-15T12:22:44.484Z,0.43
2022-11-15T12:25:31.091Z,0.30
2022-11-15T12:28:16.525Z,0.20
2022-11-15T12:31:38.298Z,0.20
2022-11-15T12:34:31.196Z,0.40
2022-11-15T12:37:01.533Z,0.30
2022-11-15T12:40:05.464Z,0.10
2022-11-15T12:42:59.479Z,0.30
2022-11-15T12:45:43.746Z,0.35
2022-11-15T12:48:40.301Z,0.45
2022-11-15T12:51:10.517Z,0.30
2022-11-15T12:53:41.442Z,0.30
2022-11-15T12:56:20.819Z,0.20
2022-11-15T12:59:07.613Z,0.10
2022-11-15T13:02:00.443Z,0.20
2022-11-15T13:04:32.464Z,0.15
2022-11-15T13:07:09.787Z,0.20
2022-11-15T13:09:40.028Z,0.30
2022-11-15T13:12:29.542Z,0.30
2022-11-15T13:15:14.798Z,0.30
2022-11-15T13:17:56.051Z,0.30
2022-11-15T13:20:26.793Z,0.20
2022-11-15T13:23:14.536Z,0.25
2022-11-15T13:26:24.294Z,0.30
2022-11-15T13:28:57.044Z,0.20
2022-11-15T13:31:42.937Z,0.20
2022-11-15T13:34:54.987Z,0.20
2022-11-15T13:37:25.206Z,0.30
2022-11-15T13:39:55.627Z,0.30
2022-11-15T13:42:30.977Z,0.32
2022-11-15T13:45:07.015Z,0.30
2022-11-15T13:47:37.579Z,0.17
2022-11-15T13:50:12.079Z,0.20
2022-11-15T13:52:45.746Z,0.20
2022-11-15T13:55:22.107Z,0.20
2022-11-15T13:57:59.532Z,0.22
2022-11-15T14:00:30.000Z,0.20
2022-11-15T14:03:07.102Z,0.20
2022-11-15T14:05:37.510Z,0.20
2022-11-15T14:08:26.119Z,0.30
2022-11-15T14:13:43.302Z,0.20
2022-11-15T14:16:17.565Z,0.50
2022-11-15T14:18:49.823Z,0.30
2022-11-15T14:21:21.755Z,0.10
2022-11-15T14:23:52.856Z,0.10
2022-11-15T14:26:37.369Z,0.17
2022-11-15T14:29:41.425Z,0.25
2022-11-15T14:32:30.290Z,0.20
2022-11-15T14:35:06.163Z,0.10
2022-11-15T14:37:37.185Z,0.10
2022-11-15T14:40:11.800Z,0.10
2022-11-15T14:42:42.078Z,0.20
2022-11-15T14:45:23.985Z,0.10
2022-11-15T14:47:54.245Z,0.17
2022-11-15T14:50:24.934Z,0.08
2022-11-15T14:52:55.192Z,0.10
2022-11-15T14:55:25.908Z,0.20
2022-11-15T14:57:56.092Z,0.05
2022-11-15T15:00:27.836Z,0.20
2022-11-15T15:03:01.641Z,0.10
2022-11-15T15:05:46.010Z,0.10
2022-11-15T15:08:16.317Z,0.30
2022-11-15T15:10:48.455Z,0.05
2022-11-15T15:13:26.538Z,0.08
2022-11-15T15:15:56.740Z,0.20
2022-11-15T15:18:26.925Z,0.10
2022-11-15T15:21:04.686Z,0.10
2022-11-15T15:23:35.092Z,0.10
2022-11-15T15:26:06.079Z,0.10
2022-11-15T15:28:37.590Z,0.20
2022-11-15T15:31:08.724Z,0.10
2022-11-15T15:33:39.721Z,0.10
2022-11-15T15:36:19.579Z,0.22
2022-11-15T15:38:49.821Z,0.05
2022-11-15T15:41:20.442Z,0.20
2022-11-15T15:43:50.740Z,0.10
2022-11-15T15:46:22.564Z,0.10
2022-11-15T15:48:52.959Z,0.32
2022-11-15T15:51:23.178Z,0.20
2022-11-15T15:53:54.865Z,0.10
2022-11-15T15:56:25.670Z,0.10
2022-11-15T15:58:57.608Z,0.28
2022-11-15T16:01:28.033Z,0.10
2022-11-15T16:03:58.371Z,0.10
2022-11-15T16:06:41.426Z,0.10
2022-11-15T16:09:19.762Z,0.30
2022-11-15T16:11:50.408Z,0.20
2022-11-15T16:14:20.554Z,0.10
2022-11-15T16:16:50.752Z,0.08
2022-11-15T16:21:50.459Z,0.10
2022-11-15T16:24:21.996Z,0.10
2022-11-15T16:26:53.247Z,0.17
2022-11-15T16:29:23.711Z,0.20
2022-11-15T16:31:53.951Z,0.03
2022-11-15T16:34:25.793Z,0.10
2022-11-15T16:36:58.374Z,0.30
2022-11-15T16:39:30.060Z,0.10
2022-11-15T16:42:01.882Z,0.10
2022-11-15T16:44:32.155Z,0.10
2022-11-15T16:47:03.767Z,0.10
2022-11-15T16:49:34.030Z,0.10
2022-11-15T16:52:04.257Z,0.00
2022-11-15T16:54:34.529Z,0.20
2022-11-15T16:57:05.230Z,0.30
2022-11-15T16:59:38.342Z,0.30
2022-11-15T17:02:14.425Z,0.10
2022-11-15T17:04:44.690Z,0.08
2022-11-15T17:07:14.916Z,0.45
2022-11-15T17:09:45.126Z,0.20
2022-11-15T17:12:15.751Z,0.20
2022-11-15T17:14:47.360Z,0.10
2022-11-15T17:17:17.627Z,0.20
2022-11-15T17:19:47.675Z,0.00
2022-11-15T17:22:18.011Z,0.40
2022-11-15T17:24:48.375Z,0.20
2022-11-15T17:27:18.848Z,0.20
2022-11-15T17:29:49.317Z,0.10
2022-11-15T17:32:19.601Z,0.20
2022-11-15T17:34:49.844Z,0.10
2022-11-15T17:37:20.096Z,0.20
2022-11-15T17:39:50.227Z,0.20
2022-11-15T17:42:20.451Z,0.40
2022-11-15T17:44:50.648Z,0.25
2022-11-15T17:47:21.028Z,0.38
2022-11-15T17:49:51.209Z,0.10
2022-11-15T17:52:21.407Z,0.10
2022-11-15T17:54:51.675Z,0.10
2022-11-15T17:57:22.210Z,0.32
2022-11-15T17:59:52.423Z,0.13
2022-11-15T18:02:22.736Z,0.20
2022-11-15T18:04:53.002Z,0.30
2022-11-15T18:07:23.374Z,0.20
2022-11-15T18:09:53.700Z,0.00
2022-11-15T18:12:24.050Z,0.10
2022-11-15T18:14:54.603Z,0.17
2022-11-15T18:17:25.445Z,0.20
2022-11-15T18:19:55.691Z,0.20
2022-11-15T18:22:26.267Z,0.30
2022-11-15T18:24:56.636Z,0.20
2022-11-15T18:27:27.140Z,0.30
2022-11-15T18:29:57.552Z,0.22
2022-11-15T18:32:27.771Z,0.38
2022-11-15T18:34:58.048Z,0.00
2022-11-15T18:37:28.329Z,0.20
2022-11-15T18:39:58.401Z,0.13
2022-11-15T18:42:28.927Z,0.10
2022-11-15T18:44:59.213Z,0.20
2022-11-15T18:47:31.128Z,0.10
2022-11-15T18:50:01.339Z,0.10
2022-11-15T18:52:31.609Z,0.55
2022-11-15T18:55:01.848Z,0.10
2022-11-15T18:57:32.689Z,0.10
2022-11-15T19:00:02.700Z,0.30
2022-11-15T19:02:32.786Z,0.10
2022-11-15T19:05:02.827Z,0.33
2022-11-15T19:07:33.010Z,0.30
2022-11-15T19:10:03.272Z,0.15
2022-11-15T19:12:33.504Z,0.10
2022-11-15T19:15:07.599Z,0.10
2022-11-15T19:17:40.265Z,0.20
2022-11-15T19:20:11.016Z,0.30
2022-11-15T19:22:41.462Z,0.63
2022-11-15T19:25:12.229Z,0.15
2022-11-15T19:27:42.498Z,0.45
2022-11-15T19:30:13.146Z,0.10
2022-11-15T19:32:43.491Z,0.30
2022-11-15T19:35:13.635Z,0.32
2022-11-15T19:37:43.916Z,0.10
2022-11-15T19:40:14.174Z,0.10
2022-11-15T19:42:44.151Z,0.15
2022-11-15T19:45:14.436Z,0.10
2022-11-15T19:47:44.675Z,0.20
2022-11-15T19:50:14.891Z,0.22
2022-11-15T19:52:45.247Z,0.25
2022-11-15T19:55:15.433Z,0.20
2022-11-15T19:57:46.030Z,0.10
2022-11-15T20:00:16.423Z,0.10
2022-11-15T20:02:46.699Z,0.10
2022-11-15T20:05:18.504Z,0.20
2022-11-15T20:07:52.325Z,0.20
2022-11-15T20:10:22.532Z,0.10
2022-11-15T20:12:52.798Z,0.30
2022-11-15T20:15:23.008Z,0.20
2022-11-15T20:17:53.231Z,0.20
2022-11-15T20:20:23.489Z,0.10
2022-11-15T20:22:54.394Z,0.25
2022-11-15T20:25:24.566Z,0.22
2022-11-15T20:27:54.743Z,0.40
2022-11-15T20:30:24.914Z,0.30
2022-11-15T20:32:55.153Z,0.15
2022-11-15T20:35:25.422Z,0.20
2022-11-15T20:37:55.665Z,0.10
2022-11-15T20:40:25.966Z,0.10
2022-11-15T20:42:56.615Z,0.20
2022-11-15T20:45:26.921Z,0.30
2022-11-15T20:47:58.435Z,0.10
2022-11-15T20:50:42.307Z,0.10
2022-11-15T20:53:16.477Z,0.10
2022-11-15T20:55:49.531Z,0.28
2022-11-15T20:58:20.413Z,0.20
2022-11-15T21:00:50.919Z,0.10
2022-11-15T21:03:21.302Z,0.10
2022-11-15T21:05:54.220Z,0.10
2022-11-15T21:08:24.599Z,0.08
2022-11-15T21:11:13.844Z,0.17
2022-11-15T21:13:44.432Z,0.10
2022-11-15T21:16:14.926Z,0.10
2022-11-15T21:18:45.275Z,0.50
2022-11-15T21:21:16.325Z,0.25
2022-11-15T21:23:46.558Z,0.60
2022-11-15T21:26:16.639Z,0.13
2022-11-15T21:28:46.908Z,0.50
2022-11-15T21:31:17.212Z,0.70
2022-11-15T21:33:47.413Z,0.40
2022-11-15T21:36:17.824Z,0.30
2022-11-15T21:38:48.095Z,0.30
2022-11-15T21:41:18.346Z,0.35
2022-11-15T21:43:48.769Z,0.30
2022-11-15T21:46:19.325Z,0.30
2022-11-15T21:48:49.616Z,0.70
2022-11-15T21:51:19.889Z,2.28
2022-11-15T21:53:50.327Z,0.50
2022-11-15T21:56:20.254Z,0.65
2022-11-15T21:58:51.251Z,0.52
2022-11-15T22:01:40.455Z,0.30
2022-11-15T22:04:10.775Z,0.47
2022-11-15T22:06:41.186Z,0.47
2022-11-15T22:09:11.567Z,0.40
2022-11-15T22:11:41.825Z,0.30
2022-11-15T22:14:12.495Z,0.30
2022-11-15T22:19:12.601Z,1.90
2022-11-15T22:21:42.844Z,2.22
2022-11-15T22:26:42.502Z,1.08
2022-11-15T22:31:42.119Z,0.60
2022-11-15T22:34:12.232Z,0.63
2022-11-15T22:37:18.313Z,0.80
2022-11-15T22:39:37.084Z,0.60
2022-11-15T22:42:07.361Z,0.73
2022-11-15T22:44:37.532Z,0.52
2022-11-15T22:47:07.762Z,0.82
2022-11-15T22:49:37.946Z,0.75
2022-11-15T22:52:08.332Z,1.40
2022-11-15T22:54:38.536Z,1.45
2022-11-15T22:57:09.140Z,1.60
2022-11-15T22:59:39.361Z,1.67
2022-11-15T23:04:39.036Z,2.75
2022-11-15T23:07:09.358Z,2.80
2022-11-15T23:09:39.662Z,3.47
2022-11-15T23:12:30.638Z,3.47
2022-11-15T23:15:01.016Z,5.05
2022-11-15T23:17:32.315Z,6.93
2022-11-15T23:20:16.707Z,5.70
2022-11-15T23:22:52.818Z,4.90
2022-11-15T23:25:22.841Z,4.43
2022-11-15T23:27:52.821Z,2.95
2022-11-15T23:30:48.639Z,3.47
2022-11-15T23:33:37.114Z,2.65
2022-11-15T23:36:08.051Z,2.25
2022-11-15T23:38:38.995Z,2.42
2022-11-15T23:41:09.453Z,1.95
2022-11-15T23:43:39.701Z,1.63
2022-11-15T23:46:09.996Z,1.48
2022-11-15T23:48:40.545Z,1.50
2022-11-15T23:51:10.733Z,1.67
2022-11-15T23:53:41.129Z,1.48
2022-11-15T23:56:16.723Z,1.65
2022-11-15T23:58:48.264Z,1.40
